Time;durP1;ratioP1;P1;durP2;ratioP2;P2;SDS_P1;SDS_P2;PMS_P1;PMS_P2;Temp;Humidity;BMP_temperature;BMP_pressure;BME280_temperature;BME280_humidity;BME280_pressure;Samples;Min_cycle;Max_cycle;Signal;HPM_P1;HPM_P2
2023/09/14 00:00:50;;;;;;;2.03;2.00;;;23.90;76.10;;;;;;5051375;28;43806;-78
2023/09/14 00:03:19;;;;;;;2.23;2.23;;;23.90;76.60;;;;;;5069177;28;43638;-77
2023/09/14 00:05:48;;;;;;;1.90;1.90;;;23.90;76.00;;;;;;5051740;28;46020;-78
2023/09/14 00:08:16;;;;;;;2.00;2.00;;;23.80;76.20;;;;;;5069267;28;43761;-78
2023/09/14 00:10:45;;;;;;;2.25;2.25;;;23.90;76.00;;;;;;5072759;28;43389;-78
2023/09/14 00:13:14;;;;;;;2.05;2.05;;;24.00;75.70;;;;;;5070055;28;43463;-78
2023/09/14 00:15:42;;;;;;;2.13;2.13;;;24.10;75.20;;;;;;5074481;28;44028;-78
2023/09/14 00:18:10;;;;;;;1.90;1.90;;;24.20;75.00;;;;;;5050930;28;45763;-78
2023/09/14 00:20:38;;;;;;;2.33;2.33;;;24.30;74.80;;;;;;5070296;28;43426;-78
2023/09/14 00:23:06;;;;;;;2.05;2.05;;;24.20;74.90;;;;;;5073809;28;43497;-78
2023/09/14 00:25:34;;;;;;;2.10;2.10;;;24.20;75.10;;;;;;5050943;28;45702;-78
2023/09/14 00:28:02;;;;;;;1.83;1.83;;;24.10;75.20;;;;;;5069911;28;43396;-72
2023/09/14 00:30:32;;;;;;;1.95;1.95;;;24.10;75.20;;;;;;5050317;28;43464;-72
2023/09/14 00:33:00;;;;;;;1.80;1.80;;;24.10;75.40;;;;;;5051530;28;43851;-72
2023/09/14 00:35:29;;;;;;;2.00;2.00;;;24.00;75.50;;;;;;5050106;28;44023;-72
2023/09/14 00:37:57;;;;;;;2.03;2.03;;;23.90;75.70;;;;;;5069893;28;43550;-72
2023/09/14 00:40:25;;;;;;;2.17;2.17;;;24.00;75.90;;;;;;5053545;28;43416;-74
2023/09/14 00:42:53;;;;;;;2.08;2.08;;;23.90;75.80;;;;;;5053931;28;43551;-73
2023/09/14 00:45:22;;;;;;;2.10;2.10;;;23.90;75.60;;;;;;5050864;28;45885;-73
2023/09/14 00:47:52;;;;;;;2.00;2.00;;;23.90;76.20;;;;;;5050295;28;44382;-73
2023/09/14 00:50:21;;;;;;;2.30;2.30;;;23.90;76.10;;;;;;5050525;28;43460;-72
2023/09/14 00:52:52;;;;;;;2.05;2.05;;;24.00;75.80;;;;;;5050604;28;44053;-73
2023/09/14 00:55:20;;;;;;;2.30;2.30;;;24.10;75.40;;;;;;5052816;28;45335;-72
2023/09/14 00:57:49;;;;;;;2.10;2.10;;;24.10;75.10;;;;;;5052058;28;44318;-72
2023/09/14 01:00:17;;;;;;;2.13;2.13;;;24.10;75.10;;;;;;5050821;28;43595;-72
2023/09/14 01:02:45;;;;;;;2.20;2.20;;;24.10;75.20;;;;;;5069546;28;43403;-72
2023/09/14 01:05:15;;;;;;;2.00;2.00;;;24.00;75.40;;;;;;5050297;28;45721;-72
2023/09/14 01:07:43;;;;;;;2.20;2.20;;;24.00;75.70;;;;;;5050545;28;44693;-72
2023/09/14 01:10:12;;;;;;;2.28;2.28;;;24.00;76.40;;;;;;5050591;28;43428;-74
2023/09/14 01:12:40;;;;;;;2.17;2.17;;;23.90;75.60;;;;;;5051060;28;43415;-72
2023/09/14 01:15:10;;;;;;;2.00;2.00;;;23.90;75.70;;;;;;5049919;28;45815;-73
2023/09/14 01:17:42;;;;;;;2.25;2.25;;;23.80;76.10;;;;;;5050419;28;44705;-74
2023/09/14 01:20:21;;;;;;;2.47;2.47;;;23.90;75.90;;;;;;5050159;28;43452;-74
2023/09/14 01:22:52;;;;;;;2.30;2.30;;;24.00;75.60;;;;;;5071762;27;43372;-73
2023/09/14 01:25:26;;;;;;;2.20;2.20;;;24.10;75.20;;;;;;5049034;28;45499;-73
2023/09/14 01:27:57;;;;;;;2.05;2.05;;;24.20;75.80;;;;;;5049710;28;44693;-72
2023/09/14 01:30:25;;;;;;;2.27;2.27;;;24.10;75.00;;;;;;5053243;28;43472;-72
2023/09/14 01:32:54;;;;;;;2.10;2.10;;;24.10;75.10;;;;;;5050234;28;43489;-73
2023/09/14 01:35:22;;;;;;;2.25;2.25;;;24.00;75.50;;;;;;5049743;28;43916;-73
2023/09/14 01:37:50;;;;;;;2.25;2.25;;;24.00;75.70;;;;;;5050106;28;44731;-78
2023/09/14 01:40:19;;;;;;;2.15;2.15;;;23.90;75.70;;;;;;5051071;28;43390;-78
2023/09/14 01:42:47;;;;;;;2.40;2.40;;;23.90;75.60;;;;;;5072861;28;43825;-78
2023/09/14 01:45:16;;;;;;;2.40;2.40;;;23.80;76.00;;;;;;5049731;28;44271;-78
2023/09/14 01:47:46;;;;;;;2.08;2.08;;;23.80;76.00;;;;;;5050044;28;44740;-78
2023/09/14 01:50:14;;;;;;;2.30;2.20;;;23.80;76.00;;;;;;5049755;28;43418;-78
2023/09/14 01:52:43;;;;;;;2.20;2.20;;;23.80;75.80;;;;;;5049844;28;43933;-78
2023/09/14 01:55:12;;;;;;;2.13;2.13;;;23.70;76.20;;;;;;5049170;28;45831;-78
2023/09/14 01:57:41;;;;;;;2.25;2.25;;;23.80;76.30;;;;;;5049475;28;44696;-78
2023/09/14 02:00:10;;;;;;;2.30;2.30;;;23.80;76.10;;;;;;5049319;28;43483;-78
2023/09/14 02:02:42;;;;;;;2.00;2.00;;;24.00;75.70;;;;;;5066579;28;43392;-78
2023/09/14 02:05:10;;;;;;;2.30;2.30;;;24.10;75.30;;;;;;5047947;28;45992;-78
2023/09/14 02:07:38;;;;;;;2.08;2.08;;;24.10;75.10;;;;;;5048739;28;44387;-78
2023/09/14 02:10:08;;;;;;;1.90;1.90;;;24.10;75.10;;;;;;5049449;28;43499;-78
2023/09/14 02:12:36;;;;;;;2.40;2.40;;;24.00;75.10;;;;;;5068915;28;43394;-78
2023/09/14 02:15:06;;;;;;;2.28;2.28;;;24.00;75.60;;;;;;5049396;28;46377;-78
2023/09/14 02:17:34;;;;;;;2.00;2.00;;;24.00;75.60;;;;;;5067981;28;43476;-78
2023/09/14 02:20:05;;;;;;;2.05;2.05;;;23.90;75.60;;;;;;5049674;28;43444;-78
2023/09/14 02:22:33;;;;;;;2.10;2.10;;;23.90;75.60;;;;;;5048844;28;43520;-78
2023/09/14 02:25:01;;;;;;;2.30;2.30;;;23.80;76.00;;;;;;5049553;28;46105;-79
2023/09/14 02:27:29;;;;;;;2.22;2.22;;;23.80;76.00;;;;;;5048714;28;44666;-78
2023/09/14 02:29:57;;;;;;;2.30;2.30;;;23.90;75.70;;;;;;5050814;28;43850;-78
2023/09/14 02:32:25;;;;;;;2.20;2.20;;;24.00;75.50;;;;;;5050335;28;43420;-77
2023/09/14 02:34:54;;;;;;;2.33;2.33;;;24.00;76.10;;;;;;5049098;28;46054;-78
2023/09/14 02:37:25;;;;;;;2.20;2.20;;;23.90;75.30;;;;;;5048963;28;44709;-78
2023/09/14 02:39:53;;;;;;;2.40;2.40;;;23.90;75.70;;;;;;5068047;28;43370;-78
2023/09/14 02:42:22;;;;;;;2.38;2.38;;;23.90;75.60;;;;;;5054331;28;43981;-78
2023/09/14 02:44:50;;;;;;;2.08;2.08;;;23.90;75.60;;;;;;5048524;28;46271;-78
2023/09/14 02:47:18;;;;;;;2.10;2.10;;;23.90;75.60;;;;;;5049610;28;44764;-77
2023/09/14 02:49:46;;;;;;;1.97;1.97;;;23.80;75.60;;;;;;5048838;28;43482;-73
2023/09/14 02:52:14;;;;;;;2.20;2.10;;;23.80;75.90;;;;;;5049214;28;43610;-72
2023/09/14 02:54:43;;;;;;;2.20;2.20;;;23.80;75.90;;;;;;5067380;28;44797;-72
2023/09/14 02:57:16;;;;;;;2.07;2.07;;;23.80;75.90;;;;;;5048989;28;44743;-79
2023/09/14 02:59:44;;;;;;;2.00;2.00;;;23.70;75.80;;;;;;5042640;28;43369;-73
2023/09/14 03:02:12;;;;;;;2.28;2.28;;;23.70;76.20;;;;;;5049805;28;43550;-73
2023/09/14 03:04:40;;;;;;;2.10;2.10;;;23.80;76.00;;;;;;5045300;28;45852;-73
2023/09/14 03:07:08;;;;;;;2.40;2.40;;;23.90;75.70;;;;;;5054195;28;45255;-72
2023/09/14 03:09:37;;;;;;;2.40;2.40;;;24.00;75.30;;;;;;5045871;28;43995;-74
2023/09/14 03:12:07;;;;;;;2.00;2.00;;;24.10;75.00;;;;;;5050961;28;43724;-74
2023/09/14 03:14:35;;;;;;;2.20;2.20;;;24.10;74.80;;;;;;5040538;28;45377;-74
2023/09/14 03:17:03;;;;;;;2.10;2.10;;;24.10;74.90;;;;;;5065154;28;43538;-72
2023/09/14 03:19:33;;;;;;;2.05;2.05;;;24.00;75.20;;;;;;5072252;28;43360;-72
2023/09/14 03:22:01;;;;;;;2.30;2.30;;;24.00;75.30;;;;;;5074069;28;43545;-74
2023/09/14 03:24:29;;;;;;;2.22;2.22;;;23.90;75.30;;;;;;5074331;28;45518;-73
2023/09/14 03:26:57;;;;;;;2.30;2.30;;;23.90;75.40;;;;;;5075671;28;44747;-73
2023/09/14 03:29:27;;;;;;;2.28;2.28;;;23.90;75.60;;;;;;5073546;28;44173;-72
2023/09/14 03:31:56;;;;;;;2.10;2.10;;;23.80;75.80;;;;;;5076315;28;43526;-73
2023/09/14 03:34:24;;;;;;;2.25;2.25;;;23.80;75.90;;;;;;5090631;28;43825;-73
2023/09/14 03:36:52;;;;;;;2.00;2.00;;;23.80;75.80;;;;;;5075286;28;43450;-72
2023/09/14 03:39:20;;;;;;;2.22;2.22;;;23.70;75.80;;;;;;5075756;28;43410;-72
2023/09/14 03:41:49;;;;;;;2.03;2.03;;;23.70;76.20;;;;;;5087286;27;43442;-73
2023/09/14 03:44:17;;;;;;;2.10;2.10;;;23.70;76.00;;;;;;5076122;28;45689;-72
2023/09/14 03:46:47;;;;;;;2.20;2.20;;;23.80;75.70;;;;;;5079056;28;44706;-72
2023/09/14 03:49:15;;;;;;;2.30;2.30;;;24.00;76.10;;;;;;5077330;28;43684;-74
2023/09/14 03:51:43;;;;;;;2.00;2.00;;;24.00;75.10;;;;;;5080724;27;44138;-73
2023/09/14 03:54:11;;;;;;;2.13;2.13;;;24.00;75.00;;;;;;5074875;28;45917;-73
2023/09/14 03:56:39;;;;;;;2.20;2.20;;;24.00;75.10;;;;;;5074242;28;45219;-73
2023/09/14 03:59:07;;;;;;;2.37;2.37;;;23.90;75.40;;;;;;5074006;28;43475;-73
2023/09/14 04:01:36;;;;;;;2.17;2.17;;;23.90;75.60;;;;;;5079902;28;43890;-73
2023/09/14 04:04:06;;;;;;;2.03;2.03;;;23.90;75.60;;;;;;5089705;28;43675;-73
2023/09/14 04:06:34;;;;;;;2.30;2.30;;;23.80;75.50;;;;;;5072395;28;44041;-73
2023/09/14 04:09:04;;;;;;;2.17;2.17;;;23.80;75.80;;;;;;5079535;28;43477;-78
2023/09/14 04:11:32;;;;;;;2.10;2.10;;;23.70;76.00;;;;;;5072979;28;43600;-78
2023/09/14 04:14:02;;;;;;;2.40;2.30;;;23.80;75.90;;;;;;5076132;28;45657;-78
2023/09/14 04:16:30;;;;;;;2.42;2.42;;;23.90;75.70;;;;;;5072474;28;45211;-78
2023/09/14 04:19:02;;;;;;;2.40;2.33;;;23.90;75.60;;;;;;5073312;28;43576;-73
2023/09/14 04:21:32;;;;;;;2.10;2.10;;;23.90;75.60;;;;;;5080097;28;43518;-73
2023/09/14 04:24:00;;;;;;;2.23;2.23;;;23.80;75.80;;;;;;5073464;28;45818;-72
2023/09/14 04:26:29;;;;;;;2.17;2.17;;;23.80;75.70;;;;;;5076989;27;43460;-73
2023/09/14 04:28:57;;;;;;;2.33;2.33;;;23.80;75.70;;;;;;5074359;28;43877;-72
2023/09/14 04:31:26;;;;;;;3.20;3.00;;;23.80;75.60;;;;;;5076077;28;43494;-71
2023/09/14 04:33:54;;;;;;;5.20;3.70;;;23.70;75.90;;;;;;5076723;28;45627;-74
2023/09/14 04:36:22;;;;;;;4.10;3.70;;;23.70;75.90;;;;;;5077593;28;44490;-73
2023/09/14 04:38:52;;;;;;;4.17;3.80;;;23.70;76.00;;;;;;5078891;27;43912;-73
2023/09/14 04:41:20;;;;;;;9.55;5.75;;;23.70;75.80;;;;;;5077280;27;43515;-72
2023/09/14 04:43:48;;;;;;;13.23;5.97;;;23.70;76.40;;;;;;5081119;27;45295;-73
2023/09/14 04:46:16;;;;;;;16.48;6.10;;;23.70;76.20;;;;;;5081404;27;44241;-73
2023/09/14 04:48:44;;;;;;;16.93;7.47;;;23.70;75.80;;;;;;5080162;28;43374;-73
2023/09/14 04:51:15;;;;;;;13.53;6.60;;;23.90;75.50;;;;;;5077741;28;43515;-72
2023/09/14 04:53:43;;;;;;;13.77;6.88;;;24.00;75.00;;;;;;5075231;28;45405;-73
2023/09/14 04:56:12;;;;;;;15.10;7.25;;;24.00;74.70;;;;;;5089370;28;43768;-72
2023/09/14 04:58:40;;;;;;;16.73;7.18;;;24.00;74.70;;;;;;5077709;28;44108;-73
2023/09/14 05:01:08;;;;;;;15.30;7.50;;;24.00;74.90;;;;;;5074770;28;44036;-73
2023/09/14 05:03:36;;;;;;;15.93;7.28;;;23.90;75.10;;;;;;5072757;27;45826;-73
2023/09/14 05:06:05;;;;;;;16.38;7.78;;;23.90;75.20;;;;;;5088656;28;43542;-74
2023/09/14 05:08:33;;;;;;;17.98;7.20;;;23.90;75.30;;;;;;5073870;28;43387;-74
2023/09/14 05:11:03;;;;;;;18.38;7.75;;;23.80;75.20;;;;;;5075830;27;43574;-74
2023/09/14 05:13:32;;;;;;;17.08;8.20;;;23.70;75.70;;;;;;5071612;28;45549;-72
2023/09/14 05:16:01;;;;;;;20.15;8.60;;;23.70;75.80;;;;;;5071863;28;44757;-73
2023/09/14 05:18:29;;;;;;;15.37;7.50;;;23.70;75.80;;;;;;5075891;28;43481;-70
2023/09/14 05:21:00;;;;;;;16.38;7.57;;;23.70;75.60;;;;;;5078444;28;43444;-70
2023/09/14 05:23:28;;;;;;;16.47;7.20;;;23.60;75.90;;;;;;5077795;28;45940;-70
2023/09/14 05:25:59;;;;;;;16.60;7.78;;;23.60;76.10;;;;;;5076579;28;44983;-71
2023/09/14 05:28:27;;;;;;;15.30;7.47;;;23.70;75.80;;;;;;5074078;28;43425;-71
2023/09/14 05:30:56;;;;;;;15.88;7.55;;;23.80;75.40;;;;;;5091754;28;43451;-71
2023/09/14 05:33:28;;;;;;;15.43;7.47;;;23.90;75.00;;;;;;5074667;28;45771;-71
2023/09/14 05:35:56;;;;;;;13.50;7.40;;;24.00;74.80;;;;;;5067708;28;44771;-70
2023/09/14 05:38:24;;;;;;;12.67;7.27;;;24.00;74.90;;;;;;5077366;28;43419;-71
2023/09/14 05:40:53;;;;;;;14.55;7.45;;;23.90;74.90;;;;;;5067221;28;43610;-70
2023/09/14 05:43:23;;;;;;;12.77;7.23;;;23.80;75.20;;;;;;5085336;28;43915;-72
2023/09/14 05:45:51;;;;;;;12.47;7.00;;;23.80;75.40;;;;;;5081565;28;44748;-71
2023/09/14 05:48:23;;;;;;;12.40;6.88;;;23.80;75.40;;;;;;5076382;28;43485;-71
2023/09/14 05:50:51;;;;;;;13.80;7.25;;;23.70;75.30;;;;;;5091697;28;43348;-70
2023/09/14 05:53:22;;;;;;;11.95;6.70;;;23.70;75.70;;;;;;5075483;28;43946;-71
2023/09/14 05:55:50;;;;;;;12.75;7.13;;;23.70;75.90;;;;;;5077023;28;44377;-72
2023/09/14 05:58:18;;;;;;;9.57;6.85;;;23.70;75.90;;;;;;5091748;28;43424;-70
2023/09/14 06:00:47;;;;;;;9.45;5.95;;;23.60;75.60;;;;;;5077904;28;43558;-71
2023/09/14 06:03:15;;;;;;;9.87;6.60;;;23.60;75.70;;;;;;5077918;28;45992;-70
2023/09/14 06:05:45;;;;;;;11.02;6.75;;;23.60;76.10;;;;;;5078600;28;45144;-70
2023/09/14 06:08:16;;;;;;;11.13;6.17;;;23.60;75.90;;;;;;5090746;27;44433;-71
2023/09/14 06:10:44;;;;;;;9.18;6.60;;;23.70;75.50;;;;;;5079582;28;43927;-70
2023/09/14 06:13:12;;;;;;;10.90;6.55;;;23.90;75.20;;;;;;5075261;28;45673;-70
2023/09/14 06:15:46;;;;;;;10.77;6.20;;;23.90;74.80;;;;;;5073941;28;44705;-70
2023/09/14 06:18:14;;;;;;;10.03;6.47;;;23.90;74.80;;;;;;5077653;28;43415;-70
2023/09/14 06:20:42;;;;;;;9.77;6.33;;;23.90;74.90;;;;;;5079876;28;43458;-71
2023/09/14 06:23:11;;;;;;;8.48;5.95;;;23.80;75.20;;;;;;5090199;28;43907;-71
2023/09/14 06:25:39;;;;;;;7.57;5.60;;;23.80;75.30;;;;;;5088991;27;43412;-71
2023/09/14 06:28:07;;;;;;;8.48;5.93;;;23.70;75.30;;;;;;5077448;27;43521;-73
2023/09/14 06:30:35;;;;;;;7.10;5.50;;;23.70;75.30;;;;;;5097513;27;43418;-73
2023/09/14 06:33:04;;;;;;;8.77;5.45;;;23.70;75.50;;;;;;5076659;27;46153;-73
2023/09/14 06:35:33;;;;;;;8.47;5.70;;;23.60;75.70;;;;;;5095394;27;43855;-73
2023/09/14 06:38:04;;;;;;;8.67;5.40;;;23.60;75.80;;;;;;5097417;27;43445;-70
2023/09/14 06:40:33;;;;;;;8.20;5.30;;;23.60;75.70;;;;;;5098336;27;43585;-71
2023/09/14 06:43:01;;;;;;;9.40;5.95;;;23.60;75.70;;;;;;5081652;27;45584;-72
2023/09/14 06:45:29;;;;;;;6.03;5.23;;;23.50;76.10;;;;;;5096170;27;43535;-72
2023/09/14 06:48:00;;;;;;;7.95;5.30;;;23.60;75.90;;;;;;5096785;27;43371;-70
2023/09/14 06:50:28;;;;;;;6.07;4.80;;;23.70;75.60;;;;;;5089730;27;43434;-70
2023/09/14 06:52:57;;;;;;;5.57;4.93;;;23.80;75.30;;;;;;5093618;28;43597;-70
2023/09/14 06:55:25;;;;;;;6.83;4.90;;;23.90;74.90;;;;;;5075193;28;45051;-71
2023/09/14 06:57:54;;;;;;;6.50;4.65;;;23.90;74.70;;;;;;5093749;28;43915;-71
2023/09/14 07:00:22;;;;;;;5.65;4.38;;;23.90;74.70;;;;;;5094457;28;43392;-72
2023/09/14 07:02:53;;;;;;;5.70;4.80;;;23.90;74.80;;;;;;5093423;28;43856;-71
2023/09/14 07:05:22;;;;;;;5.43;4.93;;;23.80;75.10;;;;;;5064556;28;43976;-70
2023/09/14 07:07:50;;;;;;;5.75;4.40;;;23.70;75.10;;;;;;5072118;28;43478;-71
2023/09/14 07:10:18;;;;;;;5.05;4.43;;;23.70;75.20;;;;;;5068378;28;43561;-70
2023/09/14 07:12:48;;;;;;;4.83;4.43;;;23.70;75.30;;;;;;5065460;28;45838;-69
2023/09/14 07:15:18;;;;;;;5.70;4.47;;;23.60;75.70;;;;;;5072642;28;44138;-71
2023/09/14 07:17:46;;;;;;;4.53;4.13;;;23.60;75.70;;;;;;5066756;28;43386;-71
2023/09/14 07:20:14;;;;;;;4.53;4.17;;;23.60;75.80;;;;;;5073342;28;43584;-70
2023/09/14 07:22:43;;;;;;;4.83;4.13;;;23.60;75.60;;;;;;5062475;28;45609;-71
2023/09/14 07:25:11;;;;;;;4.37;3.97;;;23.50;76.10;;;;;;5069556;28;44707;-71
2023/09/14 07:27:39;;;;;;;4.47;4.10;;;23.50;76.00;;;;;;5069541;28;43474;-70
2023/09/14 07:30:10;;;;;;;4.95;4.55;;;23.60;75.70;;;;;;5068623;28;43487;-72
2023/09/14 07:32:40;;;;;;;4.27;3.90;;;23.70;75.40;;;;;;5073150;28;43970;-71
2023/09/14 07:35:09;;;;;;;4.53;4.10;;;23.80;75.10;;;;;;5063081;28;43394;-71
2023/09/14 07:37:37;;;;;;;4.32;4.00;;;23.80;74.90;;;;;;5067978;28;43467;-76
2023/09/14 07:40:06;;;;;;;4.70;4.40;;;23.80;75.00;;;;;;5049986;28;43469;-76
2023/09/14 07:42:34;;;;;;;4.40;4.10;;;23.70;75.00;;;;;;5070077;28;43606;-75
2023/09/14 07:45:03;;;;;;;3.97;3.57;;;23.70;75.50;;;;;;5063558;28;45062;-76
2023/09/14 07:47:31;;;;;;;4.13;3.80;;;23.60;75.50;;;;;;5066401;28;43403;-77
2023/09/14 07:50:02;;;;;;;3.70;3.40;;;23.60;75.50;;;;;;5063170;28;43626;-76
2023/09/14 07:52:30;;;;;;;3.90;3.60;;;23.60;75.60;;;;;;5065134;28;43908;-77
2023/09/14 07:54:58;;;;;;;3.83;3.50;;;23.50;76.00;;;;;;5066940;28;43515;-77
2023/09/14 07:57:26;;;;;;;3.90;3.60;;;23.50;75.90;;;;;;5061659;28;43780;-77
2023/09/14 07:59:54;;;;;;;3.65;3.45;;;23.50;75.90;;;;;;5068238;28;43594;-76
2023/09/14 08:02:23;;;;;;;3.50;3.30;;;23.50;75.80;;;;;;5066644;28;46069;-76
2023/09/14 08:04:52;;;;;;;3.60;3.40;;;23.50;76.10;;;;;;5073606;28;44761;-77
2023/09/14 08:07:21;;;;;;;3.77;3.47;;;23.40;76.20;;;;;;5090318;28;43445;-77
2023/09/14 08:09:49;;;;;;;3.70;3.50;;;23.50;76.00;;;;;;5090178;28;43494;-77
2023/09/14 08:12:17;;;;;;;3.63;3.40;;;23.60;75.60;;;;;;5090543;28;43627;-77
2023/09/14 08:14:46;;;;;;;3.58;3.38;;;23.80;75.20;;;;;;5073019;28;44428;-76
2023/09/14 08:17:16;;;;;;;4.20;3.90;;;23.80;74.90;;;;;;5090251;28;43439;-77
2023/09/14 08:19:45;;;;;;;3.60;3.30;;;23.80;74.80;;;;;;5090588;28;43398;-77
2023/09/14 08:22:14;;;;;;;3.08;2.92;;;23.80;74.80;;;;;;5071832;28;46407;-77
2023/09/14 08:24:43;;;;;;;3.73;3.37;;;23.70;75.10;;;;;;5076179;28;44432;-76
2023/09/14 08:27:12;;;;;;;3.43;3.20;;;23.70;76.10;;;;;;5090189;28;43500;-77
2023/09/14 08:29:41;;;;;;;3.47;3.28;;;23.70;75.40;;;;;;5090246;28;43443;-76
2023/09/14 08:32:09;;;;;;;3.25;3.05;;;23.60;75.30;;;;;;5072500;28;45688;-76
2023/09/14 08:34:37;;;;;;;3.23;3.03;;;23.60;75.60;;;;;;5089828;28;43372;-76
2023/09/14 08:37:09;;;;;;;3.20;3.00;;;23.50;76.00;;;;;;5089896;28;43411;-77
2023/09/14 08:39:37;;;;;;;2.92;2.83;;;23.50;75.90;;;;;;5090242;28;43391;-76
2023/09/14 08:42:07;;;;;;;3.00;2.90;;;23.50;75.90;;;;;;5094843;27;43947;-77
2023/09/14 08:44:35;;;;;;;3.30;3.10;;;23.40;76.50;;;;;;5089287;28;43431;-77
2023/09/14 08:47:03;;;;;;;3.20;3.00;;;23.40;76.30;;;;;;5074166;28;43482;-77
2023/09/14 08:49:34;;;;;;;3.08;2.88;;;23.40;76.30;;;;;;5069789;28;43565;-75
2023/09/14 08:52:03;;;;;;;3.07;2.87;;;23.40;76.10;;;;;;5086467;27;44062;-76
2023/09/14 08:54:31;;;;;;;2.40;2.40;;;23.40;76.00;;;;;;5089739;28;43497;-77
2023/09/14 08:56:59;;;;;;;2.93;2.80;;;23.40;77.30;;;;;;5086009;27;43478;-77
2023/09/14 08:59:28;;;;;;;2.90;2.80;;;23.40;76.40;;;;;;5089992;28;43407;-77
2023/09/14 09:01:57;;;;;;;3.17;2.97;;;23.50;76.20;;;;;;5088967;28;43595;-77
2023/09/14 09:04:26;;;;;;;2.70;2.60;;;23.60;75.80;;;;;;5085492;27;43432;-76
2023/09/14 09:06:54;;;;;;;2.50;2.37;;;23.70;75.40;;;;;;5084986;28;43481;-77
2023/09/14 09:09:23;;;;;;;2.90;2.70;;;23.80;75.10;;;;;;5073938;28;44090;-77
2023/09/14 09:11:53;;;;;;;3.20;3.00;;;23.80;75.10;;;;;;5076547;28;45826;-77
2023/09/14 09:14:23;;;;;;;2.80;2.70;;;23.70;75.10;;;;;;5089459;27;43350;-79
2023/09/14 09:16:53;;;;;;;2.80;2.60;;;23.70;75.50;;;;;;5074671;28;43467;-77
2023/09/14 09:19:21;;;;;;;2.77;2.67;;;23.60;75.50;;;;;;5089376;28;43367;-77
2023/09/14 09:21:50;;;;;;;2.80;2.60;;;23.60;75.50;;;;;;5088806;27;43628;-81
2023/09/14 09:24:26;;;;;;;2.43;2.33;;;23.50;75.50;;;;;;5089074;27;43467;-79
2023/09/14 09:26:55;;;;;;;2.83;2.73;;;23.50;76.10;;;;;;5069372;28;43473;-78
2023/09/14 09:29:23;;;;;;;2.83;2.73;;;23.50;76.10;;;;;;5083735;28;43479;-78
2023/09/14 09:31:53;;;;;;;2.50;2.40;;;23.50;76.10;;;;;;5091815;28;44085;-77
2023/09/14 09:34:24;;;;;;;2.50;2.40;;;23.40;75.90;;;;;;5088044;28;43477;-76
2023/09/14 09:36:56;;;;;;;2.60;2.50;;;23.40;76.10;;;;;;5066669;28;43427;-78
2023/09/14 09:39:24;;;;;;;2.50;2.40;;;23.40;76.50;;;;;;5090691;28;43346;-79
2023/09/14 09:41:52;;;;;;;2.35;2.30;;;23.50;77.10;;;;;;5075436;27;45751;-79
2023/09/14 09:44:20;;;;;;;2.50;2.40;;;23.60;76.00;;;;;;5088101;27;43935;-77
2023/09/14 09:46:48;;;;;;;2.60;2.50;;;23.70;75.60;;;;;;5090476;27;43492;-77
2023/09/14 09:49:18;;;;;;;2.50;2.40;;;23.70;75.10;;;;;;5074969;28;43988;-76
2023/09/14 09:51:48;;;;;;;2.30;2.20;;;23.80;75.10;;;;;;5089540;27;43883;-78
2023/09/14 09:54:19;;;;;;;2.60;2.50;;;23.70;75.10;;;;;;5088572;27;44161;-78
2023/09/14 09:56:47;;;;;;;2.42;2.33;;;23.70;75.50;;;;;;5088523;28;43440;-79
2023/09/14 09:59:16;;;;;;;2.60;2.50;;;23.60;75.60;;;;;;5089107;28;43685;-77
2023/09/14 10:01:45;;;;;;;2.40;2.30;;;23.60;75.70;;;;;;5076165;28;45971;-78
2023/09/14 10:04:15;;;;;;;2.40;2.30;;;23.60;75.90;;;;;;5087842;28;43414;-76
2023/09/14 10:06:49;;;;;;;2.30;2.20;;;23.50;75.90;;;;;;5075047;28;43482;-81
2023/09/14 10:09:18;;;;;;;2.20;2.20;;;23.50;76.30;;;;;;5089383;28;43506;-77
2023/09/14 10:11:47;;;;;;;2.40;2.30;;;23.50;76.10;;;;;;5089571;28;44044;-78
2023/09/14 10:14:15;;;;;;;2.50;2.40;;;23.50;76.20;;;;;;5089902;28;43509;-78
2023/09/14 10:16:44;;;;;;;2.20;2.20;;;23.50;76.30;;;;;;5090902;28;43451;-78
2023/09/14 10:19:13;;;;;;;2.13;2.10;;;23.40;76.50;;;;;;5079158;28;43595;-77
2023/09/14 10:21:41;;;;;;;3.63;2.00;;;23.40;76.40;;;;;;5080715;28;45760;-77
2023/09/14 10:24:11;;;;;;;2.00;2.00;;;23.50;76.10;;;;;;5093922;28;43433;-77
2023/09/14 10:26:39;;;;;;;1.90;1.90;;;23.60;75.80;;;;;;5093097;28;43426;-77
2023/09/14 10:29:08;;;;;;;2.05;2.05;;;23.70;75.30;;;;;;5095549;28;43656;-77
2023/09/14 10:31:36;;;;;;;2.30;2.30;;;23.80;75.00;;;;;;5094472;28;43920;-76
2023/09/14 10:34:08;;;;;;;2.30;2.20;;;23.70;75.10;;;;;;5094468;28;43688;-77
2023/09/14 10:36:36;;;;;;;2.40;2.30;;;23.70;75.30;;;;;;5093336;28;43394;-75
2023/09/14 10:39:06;;;;;;;2.10;2.00;;;23.60;75.50;;;;;;5082803;28;43641;-77
2023/09/14 10:41:35;;;;;;;2.10;2.10;;;23.60;75.40;;;;;;5096574;27;43814;-76
2023/09/14 10:44:06;;;;;;;1.95;1.95;;;23.60;75.60;;;;;;5092391;27;43533;-78
2023/09/14 10:46:41;;;;;;;1.87;1.87;;;23.60;75.80;;;;;;5067933;28;44061;-76
2023/09/14 10:49:10;;;;;;;2.07;2.07;;;23.50;76.10;;;;;;5093071;27;43400;-77
2023/09/14 10:51:38;;;;;;;2.13;2.13;;;23.50;76.00;;;;;;5092967;27;43828;-77
2023/09/14 10:54:06;;;;;;;2.15;2.15;;;23.50;76.10;;;;;;5093658;28;43394;-75
2023/09/14 10:56:37;;;;;;;2.10;2.00;;;23.50;76.10;;;;;;5079126;28;43467;-77
2023/09/14 10:59:08;;;;;;;1.85;1.85;;;23.50;76.40;;;;;;5076254;28;43708;-76
2023/09/14 11:01:45;;;;;;;2.20;2.08;;;23.50;76.20;;;;;;5092338;28;43667;-78
2023/09/14 11:04:22;;;;;;;1.93;1.93;;;23.50;75.90;;;;;;5093698;27;43416;-76
2023/09/14 11:06:51;;;;;;;1.70;1.70;;;23.60;75.60;;;;;;5091469;27;43459;-77
2023/09/14 11:09:23;;;;;;;1.90;1.80;;;23.70;75.10;;;;;;5088572;28;43385;-74
2023/09/14 11:11:53;;;;;;;1.63;1.63;;;23.80;74.90;;;;;;5073755;28;45850;-75
2023/09/14 11:14:27;;;;;;;2.00;2.00;;;23.80;75.00;;;;;;5084841;27;43449;-73
2023/09/14 11:16:57;;;;;;;2.00;2.00;;;23.70;75.20;;;;;;5087160;28;43437;-72
2023/09/14 11:19:44;;;;;;;1.80;1.80;;;23.60;75.30;;;;;;5088278;28;43435;-80
2023/09/14 11:22:25;;;;;;;1.80;1.80;;;23.60;75.40;;;;;;5086590;27;44117;-78
2023/09/14 11:24:55;;;;;;;2.00;1.83;;;23.60;75.70;;;;;;5089066;28;43759;-77
2023/09/14 11:27:28;;;;;;;2.10;2.00;;;23.50;75.80;;;;;;5069742;28;43554;-78
2023/09/14 11:29:57;;;;;;;1.83;1.80;;;23.50;76.00;;;;;;5088437;28;43824;-77
2023/09/14 11:32:28;;;;;;;1.87;1.83;;;23.50;76.00;;;;;;5088254;27;44015;-77
2023/09/14 11:34:59;;;;;;;1.70;1.70;;;23.50;76.00;;;;;;5088336;27;43707;-78
2023/09/14 11:37:32;;;;;;;1.85;1.85;;;23.40;76.10;;;;;;5077427;28;43863;-76
2023/09/14 11:40:11;;;;;;;1.70;1.70;;;23.40;76.30;;;;;;5093413;27;43431;-75
2023/09/14 11:43:20;;;;;;;1.90;1.90;;;23.40;76.00;;;;;;5088972;28;43886;-76
2023/09/14 11:46:04;;;;;;;1.77;1.77;;;23.50;75.70;;;;;;5085878;27;43480;-77
2023/09/14 11:48:42;;;;;;;1.95;1.95;;;23.70;75.40;;;;;;5091568;28;44126;-77
2023/09/14 11:51:14;;;;;;;2.05;2.00;;;23.80;75.00;;;;;;5091762;27;43538;-78
2023/09/14 11:53:42;;;;;;;2.00;1.90;;;23.80;74.90;;;;;;5091443;27;43591;-77
2023/09/14 11:56:10;;;;;;;1.95;1.95;;;23.70;75.10;;;;;;5092161;28;43366;-77
2023/09/14 11:58:43;;;;;;;2.27;2.23;;;23.70;75.40;;;;;;5077259;28;43456;-77
2023/09/14 12:01:12;;;;;;;2.05;2.05;;;23.60;75.30;;;;;;5090776;28;43434;-77
2023/09/14 12:03:40;;;;;;;1.70;1.70;;;23.60;75.60;;;;;;5090127;28;43986;-76
2023/09/14 12:06:08;;;;;;;1.80;1.80;;;23.60;75.80;;;;;;5090327;28;43452;-77
2023/09/14 12:08:36;;;;;;;2.00;1.90;;;23.50;75.90;;;;;;5090082;28;43450;-78
2023/09/14 12:11:04;;;;;;;1.77;1.77;;;23.50;76.00;;;;;;5078474;28;43518;-76
2023/09/14 12:13:32;;;;;;;2.10;2.00;;;23.50;76.20;;;;;;5091043;28;43880;-76
2023/09/14 12:16:04;;;;;;;2.00;2.00;;;23.50;76.30;;;;;;5091192;28;43707;-76
2023/09/14 12:18:39;;;;;;;1.90;1.90;;;23.40;76.30;;;;;;5097641;27;43341;-75
2023/09/14 12:21:08;;;;;;;2.07;2.07;;;23.40;76.40;;;;;;5073614;28;43474;-75
2023/09/14 12:23:38;;;;;;;2.20;2.10;;;23.40;76.20;;;;;;5089605;28;43837;-75
2023/09/14 12:26:06;;;;;;;2.20;2.10;;;23.50;75.80;;;;;;5074706;28;44420;-75
2023/09/14 12:28:34;;;;;;;1.87;1.87;;;23.60;75.50;;;;;;5092325;28;43367;-71
2023/09/14 12:31:03;;;;;;;2.10;2.10;;;23.70;75.30;;;;;;5097955;28;43430;-70
2023/09/14 12:33:31;;;;;;;1.80;1.80;;;23.70;75.50;;;;;;5097664;28;43798;-72
2023/09/14 12:36:00;;;;;;;2.00;2.00;;;23.60;75.60;;;;;;5096710;28;43364;-71
2023/09/14 12:38:30;;;;;;;2.05;1.98;;;23.60;75.90;;;;;;5096855;28;43399;-70
2023/09/14 12:41:14;;;;;;;2.10;2.10;;;23.50;75.80;;;;;;5093977;27;44128;-71
2023/09/14 12:43:43;;;;;;;1.73;1.73;;;23.50;76.00;;;;;;5096956;28;44365;-70
2023/09/14 12:46:13;;;;;;;1.93;1.93;;;23.50;76.10;;;;;;5097528;28;43383;-70
2023/09/14 12:48:42;;;;;;;1.90;1.90;;;23.50;76.30;;;;;;5095312;27;43366;-70
2023/09/14 12:51:12;;;;;;;1.83;1.77;;;23.40;76.10;;;;;;5099977;27;43591;-70
2023/09/14 12:53:42;;;;;;;2.03;2.03;;;23.50;76.10;;;;;;5097045;28;43929;-70
2023/09/14 12:56:11;;;;;;;2.13;1.90;;;23.50;75.70;;;;;;5097303;28;43453;-70